createdAt,value
2022-08-25T00:00:12.999Z,0.20
2022-08-25T00:02:40.496Z,0.20
2022-08-25T00:05:08.154Z,0.20
2022-08-25T00:07:37.136Z,0.20
2022-08-25T00:10:06.026Z,0.20
2022-08-25T00:12:33.556Z,0.20
2022-08-25T00:15:01.001Z,0.20
2022-08-25T00:17:28.704Z,0.20
2022-08-25T00:22:41.461Z,0.20
2022-08-25T00:25:09.852Z,0.20
2022-08-25T00:27:37.434Z,0.20
2022-08-25T00:30:05.664Z,0.20
2022-08-25T00:32:33.116Z,0.20
2022-08-25T00:35:00.863Z,0.20
2022-08-25T00:37:28.170Z,0.20
2022-08-25T00:39:57.242Z,0.20
2022-08-25T00:42:24.988Z,0.17
2022-08-25T00:44:53.001Z,0.20
2022-08-25T00:47:20.353Z,0.20
2022-08-25T00:49:50.516Z,0.20
2022-08-25T00:52:21.188Z,0.20
2022-08-25T00:54:51.601Z,0.20
2022-08-25T00:57:22.127Z,0.20
2022-08-25T01:00:02.062Z,0.20
2022-08-25T01:02:29.404Z,0.20
2022-08-25T01:04:58.365Z,0.20
2022-08-25T01:07:25.776Z,0.20
2022-08-25T01:09:53.505Z,0.20
2022-08-25T01:12:21.137Z,0.20
2022-08-25T01:14:50.091Z,0.20
2022-08-25T01:17:17.361Z,0.20
2022-08-25T01:19:44.953Z,0.20
2022-08-25T01:22:12.494Z,0.10
2022-08-25T01:24:51.513Z,0.20
2022-08-25T01:27:18.831Z,0.20
2022-08-25T01:29:46.093Z,0.20
2022-08-25T01:32:15.312Z,0.20
2022-08-25T01:34:44.425Z,0.20
2022-08-25T01:37:13.240Z,0.20
2022-08-25T01:39:41.791Z,0.20
2022-08-25T01:42:12.087Z,0.20
2022-08-25T01:44:45.711Z,0.20
2022-08-25T01:47:13.566Z,0.20
2022-08-25T01:49:41.304Z,0.10
2022-08-25T01:52:21.421Z,0.20
2022-08-25T01:54:49.148Z,0.20
2022-08-25T01:57:16.671Z,0.20
2022-08-25T01:59:44.993Z,0.20
2022-08-25T02:02:12.648Z,0.20
2022-08-25T02:04:42.525Z,0.20
2022-08-25T02:07:12.065Z,0.20
2022-08-25T02:09:39.892Z,0.20
2022-08-25T02:12:09.450Z,0.20
2022-08-25T02:14:37.167Z,0.20
2022-08-25T02:17:05.360Z,0.20
2022-08-25T02:19:32.741Z,0.20
2022-08-25T02:22:00.597Z,0.20
2022-08-25T02:24:27.952Z,0.20
2022-08-25T02:26:55.458Z,0.20
2022-08-25T02:29:22.978Z,0.10
2022-08-25T02:31:50.419Z,0.20
2022-08-25T02:34:17.706Z,0.20
2022-08-25T02:36:45.144Z,0.10
2022-08-25T02:39:13.306Z,0.20
2022-08-25T02:41:40.784Z,0.20
2022-08-25T02:44:08.670Z,0.20
2022-08-25T02:46:36.571Z,0.13
2022-08-25T02:49:04.331Z,0.10
2022-08-25T02:51:32.082Z,0.20
2022-08-25T02:54:00.217Z,0.20
2022-08-25T02:56:27.650Z,0.20
2022-08-25T02:58:55.100Z,0.20
2022-08-25T03:01:22.509Z,0.20
2022-08-25T03:03:56.314Z,0.20
2022-08-25T03:06:24.394Z,0.10
2022-08-25T03:08:52.312Z,0.10
2022-08-25T03:11:19.681Z,0.20
2022-08-25T03:13:47.002Z,0.20
2022-08-25T03:16:15.405Z,0.13
2022-08-25T03:18:43.210Z,0.10
2022-08-25T03:21:11.617Z,0.10
2022-08-25T03:23:39.585Z,0.10
2022-08-25T03:26:25.719Z,0.20
2022-08-25T03:28:55.477Z,0.10
2022-08-25T03:31:23.551Z,0.10
2022-08-25T03:33:50.921Z,0.20
2022-08-25T03:36:18.199Z,0.10
2022-08-25T03:38:45.513Z,0.10
2022-08-25T03:41:21.482Z,0.20
2022-08-25T03:43:49.304Z,0.10
2022-08-25T03:46:23.923Z,0.10
2022-08-25T03:48:51.333Z,0.10
2022-08-25T03:51:26.157Z,0.10
2022-08-25T03:53:53.555Z,0.10
2022-08-25T03:56:20.981Z,0.10
2022-08-25T03:58:49.130Z,0.10
2022-08-25T04:01:17.494Z,0.10
2022-08-25T04:03:46.019Z,0.10
2022-08-25T04:06:13.797Z,0.20
2022-08-25T04:08:41.063Z,0.10
2022-08-25T04:11:09.566Z,0.10
2022-08-25T04:13:37.011Z,0.20
2022-08-25T04:16:05.417Z,0.10
2022-08-25T04:18:34.358Z,0.10
2022-08-25T04:21:09.825Z,0.10
2022-08-25T04:23:37.912Z,0.10
2022-08-25T04:26:19.717Z,0.10
2022-08-25T04:28:47.239Z,0.10
2022-08-25T04:31:15.352Z,0.10
2022-08-25T04:33:42.904Z,0.10
2022-08-25T04:36:12.480Z,0.10
2022-08-25T04:38:40.525Z,0.10
2022-08-25T04:41:08.317Z,0.20
2022-08-25T04:43:35.668Z,0.10
2022-08-25T04:46:11.333Z,0.10
2022-08-25T04:48:40.022Z,0.10
2022-08-25T04:51:08.063Z,0.10
2022-08-25T04:53:36.287Z,0.10
2022-08-25T04:56:06.544Z,0.10
2022-08-25T04:58:34.094Z,0.10
2022-08-25T05:01:09.004Z,0.10
2022-08-25T05:03:36.826Z,0.10
2022-08-25T05:06:04.403Z,0.10
2022-08-25T05:08:32.184Z,0.10
2022-08-25T05:10:59.985Z,0.10
2022-08-25T05:13:30.259Z,0.10
2022-08-25T05:16:00.213Z,0.10
2022-08-25T05:18:28.792Z,0.10
2022-08-25T05:20:57.167Z,0.10
2022-08-25T05:23:25.385Z,0.10
2022-08-25T05:25:53.454Z,0.10
2022-08-25T05:28:21.181Z,0.10
2022-08-25T05:30:51.812Z,0.10
2022-08-25T05:33:20.394Z,0.10
2022-08-25T05:35:47.759Z,0.10
2022-08-25T05:38:15.084Z,0.10
2022-08-25T05:40:42.959Z,0.10
2022-08-25T05:43:10.657Z,0.10
2022-08-25T05:45:38.153Z,0.10
2022-08-25T05:48:06.174Z,0.10
2022-08-25T05:50:33.683Z,0.10
2022-08-25T05:53:00.967Z,0.10
2022-08-25T05:55:28.235Z,0.20
2022-08-25T05:57:55.579Z,0.10
2022-08-25T06:00:23.075Z,0.10
2022-08-25T06:02:51.141Z,0.10
2022-08-25T06:05:19.937Z,0.10
2022-08-25T06:07:48.001Z,0.20
2022-08-25T06:10:15.649Z,0.20
2022-08-25T06:12:46.863Z,0.20
2022-08-25T06:15:15.753Z,0.20
2022-08-25T06:17:44.378Z,0.20
2022-08-25T06:20:13.407Z,0.10
2022-08-25T06:22:41.002Z,0.20
2022-08-25T06:25:09.683Z,0.20
2022-08-25T06:27:37.516Z,0.20
2022-08-25T06:30:07.612Z,0.20
2022-08-25T06:32:36.733Z,0.20
2022-08-25T06:35:05.653Z,0.20
2022-08-25T06:37:33.806Z,0.20
2022-08-25T06:40:01.139Z,0.20
2022-08-25T06:42:28.598Z,0.20
2022-08-25T06:44:55.876Z,0.20
2022-08-25T06:47:23.290Z,0.20
2022-08-25T06:49:50.614Z,0.20
2022-08-25T06:52:18.038Z,0.10
2022-08-25T06:54:45.316Z,0.20
2022-08-25T06:57:16.421Z,0.20
2022-08-25T06:59:43.936Z,0.20
2022-08-25T07:02:11.274Z,0.20
2022-08-25T07:04:38.642Z,0.20
2022-08-25T07:07:06.018Z,0.20
2022-08-25T07:09:36.313Z,0.20
2022-08-25T07:12:06.436Z,0.20
2022-08-25T07:14:33.535Z,0.20
2022-08-25T07:17:01.093Z,0.20
2022-08-25T07:19:28.055Z,0.20
2022-08-25T07:21:55.347Z,0.20
2022-08-25T07:24:23.397Z,0.20
2022-08-25T07:26:51.027Z,0.20
2022-08-25T07:29:26.544Z,0.20
2022-08-25T07:32:01.544Z,0.20
2022-08-25T07:34:52.170Z,0.20
2022-08-25T07:40:09.255Z,0.20
2022-08-25T07:42:37.911Z,0.10
2022-08-25T07:45:07.343Z,0.20
2022-08-25T07:47:34.858Z,0.20
2022-08-25T07:50:01.899Z,0.20
2022-08-25T07:52:28.858Z,0.20
2022-08-25T07:54:56.904Z,0.20
2022-08-25T07:57:26.579Z,0.20
2022-08-25T07:59:53.541Z,0.17
2022-08-25T08:02:21.138Z,0.20
2022-08-25T08:04:53.601Z,0.10
2022-08-25T08:07:23.667Z,0.10
2022-08-25T08:10:37.159Z,0.10
2022-08-25T08:12:48.057Z,0.20
2022-08-25T08:15:19.314Z,0.20
2022-08-25T08:17:47.039Z,0.20
2022-08-25T08:20:15.156Z,0.20
2022-08-25T08:22:45.271Z,0.20
2022-08-25T08:25:13.717Z,0.20
2022-08-25T08:27:46.321Z,0.15
2022-08-25T08:30:14.227Z,0.17
2022-08-25T08:33:06.217Z,0.20
2022-08-25T08:35:28.135Z,0.20
2022-08-25T08:37:55.004Z,0.20
2022-08-25T08:40:22.458Z,0.20
2022-08-25T08:43:04.216Z,0.20
2022-08-25T08:45:50.626Z,0.20
2022-08-25T08:48:40.464Z,0.20
2022-08-25T08:51:09.860Z,0.20
2022-08-25T08:54:02.834Z,0.20
2022-08-25T08:56:37.175Z,0.20
2022-08-25T08:59:13.915Z,0.20
2022-08-25T09:01:41.275Z,0.20
2022-08-25T09:04:09.581Z,0.20
2022-08-25T09:06:45.069Z,0.20
2022-08-25T09:09:20.144Z,0.20
2022-08-25T09:12:06.179Z,0.20
2022-08-25T09:14:54.770Z,0.20
2022-08-25T09:17:37.185Z,0.20
2022-08-25T09:20:18.156Z,0.20
2022-08-25T09:23:01.666Z,0.22
2022-08-25T09:25:54.334Z,0.20
2022-08-25T09:28:41.837Z,0.30
2022-08-25T09:31:20.563Z,0.20
2022-08-25T09:33:47.920Z,0.20
2022-08-25T09:36:15.746Z,0.20
2022-08-25T09:38:43.097Z,0.20
2022-08-25T09:41:11.437Z,0.20
2022-08-25T09:43:42.956Z,0.20
2022-08-25T09:46:15.789Z,0.22
2022-08-25T09:48:48.363Z,0.20
2022-08-25T09:51:42.633Z,0.20
2022-08-25T09:54:13.603Z,0.20
2022-08-25T09:56:51.574Z,0.20
2022-08-25T09:59:30.936Z,0.20
2022-08-25T10:02:23.941Z,0.20
2022-08-25T10:04:52.375Z,0.20
2022-08-25T10:07:22.276Z,0.20
2022-08-25T10:09:57.304Z,0.20
2022-08-25T10:12:31.114Z,0.20
2022-08-25T10:14:58.399Z,0.20
2022-08-25T10:17:30.437Z,0.20
2022-08-25T10:20:20.027Z,0.20
2022-08-25T10:22:50.751Z,0.20
2022-08-25T10:25:21.756Z,0.20
2022-08-25T10:27:58.552Z,0.20
2022-08-25T10:30:26.019Z,0.17
2022-08-25T10:33:04.044Z,0.20
2022-08-25T10:35:35.050Z,0.20
2022-08-25T10:38:05.308Z,0.15
2022-08-25T10:40:41.886Z,0.20
2022-08-25T10:43:10.051Z,0.20
2022-08-25T10:45:46.580Z,0.20
2022-08-25T10:48:32.755Z,0.20
2022-08-25T10:51:03.724Z,0.20
2022-08-25T10:53:34.900Z,0.20
2022-08-25T10:56:11.705Z,0.20
2022-08-25T10:58:47.912Z,0.20
2022-08-25T11:01:36.716Z,0.20
2022-08-25T11:04:13.792Z,0.20
2022-08-25T11:06:53.277Z,0.20
2022-08-25T11:09:24.672Z,0.20
2022-08-25T11:11:55.065Z,0.20
2022-08-25T11:14:26.373Z,0.20
2022-08-25T11:17:11.447Z,0.20
2022-08-25T11:19:49.787Z,0.20
2022-08-25T11:22:35.995Z,0.20
2022-08-25T11:25:23.581Z,0.30
2022-08-25T11:28:08.911Z,0.20
2022-08-25T11:30:38.461Z,0.20
2022-08-25T11:33:08.268Z,0.30
2022-08-25T11:35:50.847Z,0.25
2022-08-25T11:38:20.963Z,0.30
2022-08-25T11:40:56.384Z,0.20
2022-08-25T11:43:42.543Z,0.20
2022-08-25T11:46:18.021Z,0.20
2022-08-25T11:48:54.770Z,0.30
2022-08-25T11:51:33.749Z,0.20
2022-08-25T11:54:16.307Z,0.30
2022-08-25T11:56:43.968Z,0.20
2022-08-25T11:59:12.180Z,0.20
2022-08-25T12:01:45.998Z,0.20
2022-08-25T12:04:16.251Z,0.20
2022-08-25T12:07:07.171Z,0.20
2022-08-25T12:09:35.374Z,0.20
2022-08-25T12:12:22.615Z,0.20
2022-08-25T12:14:52.342Z,0.30
2022-08-25T12:17:21.300Z,0.20
2022-08-25T12:19:50.741Z,0.20
2022-08-25T12:22:22.185Z,0.20
2022-08-25T12:25:14.058Z,0.20
2022-08-25T12:27:59.495Z,0.25
2022-08-25T12:30:27.552Z,0.30
2022-08-25T12:33:10.355Z,0.20
2022-08-25T12:35:41.892Z,0.20
2022-08-25T12:38:11.049Z,0.25
2022-08-25T12:40:53.796Z,0.28
2022-08-25T12:43:21.053Z,0.28
2022-08-25T12:45:53.191Z,0.30
2022-08-25T12:48:29.525Z,0.30
2022-08-25T12:51:02.384Z,0.20
2022-08-25T12:53:43.172Z,0.30
2022-08-25T12:56:22.713Z,0.30
2022-08-25T12:59:03.403Z,0.30
2022-08-25T13:01:37.028Z,0.20
2022-08-25T13:04:10.870Z,0.30
2022-08-25T13:06:56.885Z,0.20
2022-08-25T13:09:42.741Z,0.30
2022-08-25T13:12:14.404Z,0.30
2022-08-25T13:14:43.896Z,0.30
2022-08-25T13:17:11.893Z,0.30
2022-08-25T13:19:39.211Z,0.30
2022-08-25T13:22:17.735Z,0.25
2022-08-25T13:24:47.508Z,0.30
2022-08-25T13:27:25.195Z,0.28
2022-08-25T13:30:03.599Z,0.30
2022-08-25T13:32:35.602Z,0.30
2022-08-25T13:35:09.486Z,0.30
2022-08-25T13:37:36.744Z,0.30
2022-08-25T13:40:10.964Z,0.30
2022-08-25T13:42:43.771Z,0.30
2022-08-25T13:45:15.959Z,0.30
2022-08-25T13:47:46.024Z,0.30
2022-08-25T13:50:16.279Z,0.30
2022-08-25T13:52:47.532Z,0.28
2022-08-25T13:55:20.150Z,0.30
2022-08-25T13:57:47.952Z,0.30
2022-08-25T14:00:25.762Z,0.30
2022-08-25T14:02:59.686Z,0.30
2022-08-25T14:05:32.428Z,0.30
2022-08-25T14:08:16.201Z,0.40
2022-08-25T14:11:12.627Z,0.30
2022-08-25T14:13:45.293Z,0.30
2022-08-25T14:16:19.294Z,0.30
2022-08-25T14:19:04.661Z,0.30
2022-08-25T14:21:34.495Z,0.30
2022-08-25T14:24:01.544Z,0.30
2022-08-25T14:26:29.068Z,0.30
2022-08-25T14:28:57.598Z,0.30
2022-08-25T14:31:33.694Z,0.30
2022-08-25T14:34:07.730Z,0.30
2022-08-25T14:36:39.437Z,0.30
2022-08-25T14:39:08.915Z,0.30
2022-08-25T14:41:38.194Z,0.30
2022-08-25T14:44:05.852Z,0.30
2022-08-25T14:46:39.090Z,0.20
2022-08-25T14:49:12.591Z,0.30
2022-08-25T14:51:43.377Z,0.30
2022-08-25T14:54:14.956Z,0.30
2022-08-25T14:56:42.957Z,0.20
2022-08-25T14:59:10.321Z,0.30
2022-08-25T15:01:37.502Z,0.30
2022-08-25T15:04:13.045Z,0.30
2022-08-25T15:06:44.083Z,0.30
2022-08-25T15:09:12.825Z,0.30
2022-08-25T15:11:41.898Z,0.30
2022-08-25T15:14:10.764Z,0.30
2022-08-25T15:16:39.995Z,0.30
2022-08-25T15:19:09.926Z,0.30
2022-08-25T15:21:38.068Z,0.30
2022-08-25T15:24:06.553Z,0.30
2022-08-25T15:26:36.640Z,0.22
2022-08-25T15:29:04.067Z,0.30
2022-08-25T15:31:31.411Z,0.30
2022-08-25T15:33:59.503Z,0.30
2022-08-25T15:36:27.303Z,0.25
2022-08-25T15:38:54.679Z,0.20
2022-08-25T15:41:23.200Z,0.20
2022-08-25T15:43:55.660Z,0.20
2022-08-25T15:46:24.875Z,0.17
2022-08-25T15:48:52.250Z,0.20
2022-08-25T15:51:19.554Z,0.20
2022-08-25T15:53:46.871Z,0.20
2022-08-25T15:56:26.364Z,0.20
2022-08-25T15:58:55.484Z,0.20
2022-08-25T16:01:27.633Z,0.20
2022-08-25T16:03:57.835Z,0.10
2022-08-25T16:06:26.125Z,0.20
2022-08-25T16:08:53.642Z,0.20
2022-08-25T16:11:22.413Z,0.20
2022-08-25T16:13:50.704Z,0.20
2022-08-25T16:16:18.789Z,0.20
2022-08-25T16:18:46.376Z,0.20
2022-08-25T16:21:14.976Z,0.20
2022-08-25T16:23:42.293Z,0.28
2022-08-25T16:26:11.084Z,0.20
2022-08-25T16:28:43.909Z,0.20
2022-08-25T16:31:12.321Z,0.20
2022-08-25T16:33:39.921Z,0.20
2022-08-25T16:36:11.596Z,0.20
2022-08-25T16:38:40.899Z,0.20
